sensor_id;sensor_type;location;lat;lon;timestamp;P1;durP1;ratioP1;P2;durP2;ratioP2
44987;SDS011;35735;52.226;21.254;2022-11-06T00:04:03;29.90;;;19.77;;
44987;SDS011;35735;52.226;21.254;2022-11-06T00:09:05;27.83;;;19.33;;
44987;SDS011;35735;52.226;21.254;2022-11-06T00:14:08;25.52;;;18.00;;
44987;SDS011;35735;52.226;21.254;2022-11-06T00:19:09;30.17;;;18.17;;
44987;SDS011;35735;52.226;21.254;2022-11-06T00:24:11;29.77;;;18.55;;
44987;SDS011;35735;52.226;21.254;2022-11-06T00:29:13;26.10;;;17.33;;
44987;SDS011;35735;52.226;21.254;2022-11-06T00:34:14;22.37;;;16.77;;
44987;SDS011;35735;52.226;21.254;2022-11-06T00:39:14;28.25;;;18.23;;
44987;SDS011;35735;52.226;21.254;2022-11-06T00:44:15;30.65;;;18.70;;
44987;SDS011;35735;52.226;21.254;2022-11-06T00:49:15;26.10;;;18.08;;
44987;SDS011;35735;52.226;21.254;2022-11-06T00:54:16;29.20;;;18.83;;
44987;SDS011;35735;52.226;21.254;2022-11-06T00:59:17;28.50;;;18.08;;
44987;SDS011;35735;52.226;21.254;2022-11-06T01:04:19;29.05;;;18.77;;
44987;SDS011;35735;52.226;21.254;2022-11-06T01:09:22;31.58;;;18.75;;
44987;SDS011;35735;52.226;21.254;2022-11-06T01:14:25;33.63;;;18.77;;
44987;SDS011;35735;52.226;21.254;2022-11-06T01:19:26;27.00;;;17.52;;
44987;SDS011;35735;52.226;21.254;2022-11-06T01:24:27;29.85;;;19.08;;
44987;SDS011;35735;52.226;21.254;2022-11-06T01:29:28;28.20;;;18.95;;
44987;SDS011;35735;52.226;21.254;2022-11-06T01:34:29;26.90;;;18.20;;
44987;SDS011;35735;52.226;21.254;2022-11-06T01:39:29;30.42;;;18.17;;
44987;SDS011;35735;52.226;21.254;2022-11-06T01:49:42;31.30;;;16.95;;
44987;SDS011;35735;52.226;21.254;2022-11-06T01:54:44;27.05;;;17.77;;
44987;SDS011;35735;52.226;21.254;2022-11-06T01:59:50;25.33;;;17.65;;
44987;SDS011;35735;52.226;21.254;2022-11-06T02:04:53;27.13;;;17.50;;
44987;SDS011;35735;52.226;21.254;2022-11-06T02:09:54;27.33;;;17.58;;
44987;SDS011;35735;52.226;21.254;2022-11-06T02:20:09;27.35;;;17.37;;
44987;SDS011;35735;52.226;21.254;2022-11-06T02:30:52;26.92;;;18.40;;
44987;SDS011;35735;52.226;21.254;2022-11-06T02:35:58;28.17;;;17.65;;
44987;SDS011;35735;52.226;21.254;2022-11-06T02:41:03;26.77;;;17.52;;
44987;SDS011;35735;52.226;21.254;2022-11-06T02:46:19;27.23;;;17.27;;
44987;SDS011;35735;52.226;21.254;2022-11-06T02:51:27;25.27;;;16.65;;
44987;SDS011;35735;52.226;21.254;2022-11-06T02:56:32;23.98;;;16.65;;
44987;SDS011;35735;52.226;21.254;2022-11-06T03:01:48;27.67;;;16.42;;
44987;SDS011;35735;52.226;21.254;2022-11-06T03:07:02;23.77;;;14.90;;
44987;SDS011;35735;52.226;21.254;2022-11-06T03:17:42;21.83;;;14.00;;
44987;SDS011;35735;52.226;21.254;2022-11-06T03:23:09;18.75;;;12.02;;
44987;SDS011;35735;52.226;21.254;2022-11-06T03:28:22;21.48;;;12.00;;
44987;SDS011;35735;52.226;21.254;2022-11-06T03:33:37;23.25;;;12.13;;
44987;SDS011;35735;52.226;21.254;2022-11-06T03:38:48;18.80;;;11.27;;
44987;SDS011;35735;52.226;21.254;2022-11-06T03:43:53;23.67;;;11.40;;
44987;SDS011;35735;52.226;21.254;2022-11-06T03:54:05;18.95;;;11.05;;
44987;SDS011;35735;52.226;21.254;2022-11-06T03:59:31;19.15;;;10.75;;
44987;SDS011;35735;52.226;21.254;2022-11-06T04:04:45;19.87;;;10.45;;
44987;SDS011;35735;52.226;21.254;2022-11-06T04:09:52;17.67;;;9.95;;
44987;SDS011;35735;52.226;21.254;2022-11-06T04:14:58;13.70;;;9.63;;
44987;SDS011;35735;52.226;21.254;2022-11-06T04:20:01;15.98;;;9.48;;
44987;SDS011;35735;52.226;21.254;2022-11-06T04:25:15;16.05;;;9.95;;
44987;SDS011;35735;52.226;21.254;2022-11-06T04:41:57;14.07;;;9.10;;
44987;SDS011;35735;52.226;21.254;2022-11-06T04:47:08;12.20;;;8.75;;
44987;SDS011;35735;52.226;21.254;2022-11-06T04:52:20;12.93;;;8.82;;
44987;SDS011;35735;52.226;21.254;2022-11-06T04:57:25;17.30;;;8.57;;
44987;SDS011;35735;52.226;21.254;2022-11-06T05:02:26;13.48;;;8.13;;
44987;SDS011;35735;52.226;21.254;2022-11-06T05:07:26;13.85;;;8.75;;
44987;SDS011;35735;52.226;21.254;2022-11-06T05:12:27;11.25;;;8.25;;
44987;SDS011;35735;52.226;21.254;2022-11-06T05:17:27;14.15;;;8.00;;
44987;SDS011;35735;52.226;21.254;2022-11-06T05:22:28;12.10;;;8.27;;
44987;SDS011;35735;52.226;21.254;2022-11-06T05:27:28;13.32;;;8.07;;
44987;SDS011;35735;52.226;21.254;2022-11-06T05:32:29;11.32;;;7.62;;
44987;SDS011;35735;52.226;21.254;2022-11-06T05:37:29;14.15;;;7.87;;
44987;SDS011;35735;52.226;21.254;2022-11-06T05:42:30;11.00;;;7.68;;
44987;SDS011;35735;52.226;21.254;2022-11-06T05:47:31;12.10;;;7.20;;
44987;SDS011;35735;52.226;21.254;2022-11-06T05:52:33;10.38;;;7.62;;
44987;SDS011;35735;52.226;21.254;2022-11-06T05:57:34;10.25;;;7.60;;
44987;SDS011;35735;52.226;21.254;2022-11-06T06:02:35;12.40;;;8.80;;
44987;SDS011;35735;52.226;21.254;2022-11-06T06:07:36;14.77;;;9.32;;
44987;SDS011;35735;52.226;21.254;2022-11-06T06:12:36;13.27;;;9.00;;
44987;SDS011;35735;52.226;21.254;2022-11-06T06:17:37;10.18;;;8.00;;
44987;SDS011;35735;52.226;21.254;2022-11-06T06:22:37;10.82;;;7.57;;
44987;SDS011;35735;52.226;21.254;2022-11-06T06:27:38;8.02;;;6.57;;
44987;SDS011;35735;52.226;21.254;2022-11-06T06:32:38;13.93;;;7.62;;
44987;SDS011;35735;52.226;21.254;2022-11-06T06:37:39;11.38;;;8.60;;
44987;SDS011;35735;52.226;21.254;2022-11-06T06:42:39;13.07;;;8.02;;
44987;SDS011;35735;52.226;21.254;2022-11-06T06:47:40;11.57;;;8.55;;
44987;SDS011;35735;52.226;21.254;2022-11-06T06:52:41;10.70;;;8.50;;
44987;SDS011;35735;52.226;21.254;2022-11-06T06:57:41;10.45;;;8.18;;
44987;SDS011;35735;52.226;21.254;2022-11-06T07:02:42;11.23;;;8.90;;
44987;SDS011;35735;52.226;21.254;2022-11-06T07:07:42;14.02;;;8.63;;
44987;SDS011;35735;52.226;21.254;2022-11-06T07:12:43;9.40;;;8.27;;
44987;SDS011;35735;52.226;21.254;2022-11-06T07:17:43;12.13;;;9.23;;
44987;SDS011;35735;52.226;21.254;2022-11-06T07:22:44;13.62;;;9.98;;
44987;SDS011;35735;52.226;21.254;2022-11-06T07:27:44;12.73;;;9.75;;
44987;SDS011;35735;52.226;21.254;2022-11-06T07:32:45;12.43;;;9.77;;
44987;SDS011;35735;52.226;21.254;2022-11-06T07:37:46;12.82;;;10.43;;
44987;SDS011;35735;52.226;21.254;2022-11-06T07:42:46;14.45;;;11.52;;
44987;SDS011;35735;52.226;21.254;2022-11-06T07:47:47;17.08;;;11.93;;
44987;SDS011;35735;52.226;21.254;2022-11-06T07:52:47;15.07;;;11.75;;
44987;SDS011;35735;52.226;21.254;2022-11-06T07:57:48;20.12;;;13.02;;
44987;SDS011;35735;52.226;21.254;2022-11-06T08:02:51;16.90;;;12.40;;
44987;SDS011;35735;52.226;21.254;2022-11-06T08:07:54;17.15;;;12.48;;
44987;SDS011;35735;52.226;21.254;2022-11-06T08:12:57;16.52;;;12.82;;
44987;SDS011;35735;52.226;21.254;2022-11-06T08:17:59;15.80;;;12.10;;
44987;SDS011;35735;52.226;21.254;2022-11-06T08:23:00;16.65;;;12.60;;
44987;SDS011;35735;52.226;21.254;2022-11-06T08:28:03;17.98;;;12.65;;
44987;SDS011;35735;52.226;21.254;2022-11-06T08:33:05;17.52;;;12.75;;
44987;SDS011;35735;52.226;21.254;2022-11-06T08:38:07;18.08;;;13.07;;
44987;SDS011;35735;52.226;21.254;2022-11-06T08:43:08;18.90;;;12.82;;
44987;SDS011;35735;52.226;21.254;2022-11-06T08:48:09;17.73;;;12.68;;
44987;SDS011;35735;52.226;21.254;2022-11-06T08:53:10;17.12;;;12.55;;
44987;SDS011;35735;52.226;21.254;2022-11-06T08:58:10;20.60;;;13.73;;
44987;SDS011;35735;52.226;21.254;2022-11-06T09:03:12;21.27;;;13.52;;
44987;SDS011;35735;52.226;21.254;2022-11-06T09:08:15;19.42;;;13.48;;
44987;SDS011;35735;52.226;21.254;2022-11-06T09:13:15;21.08;;;13.40;;
44987;SDS011;35735;52.226;21.254;2022-11-06T09:18:16;27.27;;;15.80;;
44987;SDS011;35735;52.226;21.254;2022-11-06T09:23:17;19.33;;;12.77;;
44987;SDS011;35735;52.226;21.254;2022-11-06T09:28:17;17.17;;;11.95;;
44987;SDS011;35735;52.226;21.254;2022-11-06T09:33:18;21.58;;;12.20;;
44987;SDS011;35735;52.226;21.254;2022-11-06T09:38:18;19.58;;;12.52;;
44987;SDS011;35735;52.226;21.254;2022-11-06T09:49:01;18.77;;;12.07;;
44987;SDS011;35735;52.226;21.254;2022-11-06T09:54:26;15.43;;;11.85;;
44987;SDS011;35735;52.226;21.254;2022-11-06T09:59:32;17.80;;;11.55;;
44987;SDS011;35735;52.226;21.254;2022-11-06T10:04:48;15.88;;;12.55;;
44987;SDS011;35735;52.226;21.254;2022-11-06T10:09:58;14.43;;;11.55;;
44987;SDS011;35735;52.226;21.254;2022-11-06T10:20:37;17.52;;;11.35;;
44987;SDS011;35735;52.226;21.254;2022-11-06T10:31:14;16.33;;;11.98;;
44987;SDS011;35735;52.226;21.254;2022-11-06T10:36:48;17.25;;;12.65;;
44987;SDS011;35735;52.226;21.254;2022-11-06T10:41:57;16.85;;;11.57;;
44987;SDS011;35735;52.226;21.254;2022-11-06T10:47:22;15.90;;;11.52;;
44987;SDS011;35735;52.226;21.254;2022-11-06T10:58:14;19.65;;;12.73;;
44987;SDS011;35735;52.226;21.254;2022-11-06T11:03:21;20.48;;;13.95;;
44987;SDS011;35735;52.226;21.254;2022-11-06T11:08:36;24.00;;;14.27;;
44987;SDS011;35735;52.226;21.254;2022-11-06T11:14:29;18.17;;;12.23;;
44987;SDS011;35735;52.226;21.254;2022-11-06T11:19:49;18.92;;;12.85;;
44987;SDS011;35735;52.226;21.254;2022-11-06T11:24:36;20.50;;;12.57;;
44987;SDS011;35735;52.226;21.254;2022-11-06T11:30:00;17.37;;;12.57;;
44987;SDS011;35735;52.226;21.254;2022-11-06T11:35:06;17.92;;;12.02;;
44987;SDS011;35735;52.226;21.254;2022-11-06T11:45:36;13.35;;;10.32;;
44987;SDS011;35735;52.226;21.254;2022-11-06T11:50:37;15.25;;;11.23;;
44987;SDS011;35735;52.226;21.254;2022-11-06T11:55:44;16.48;;;11.20;;
44987;SDS011;35735;52.226;21.254;2022-11-06T12:00:52;18.17;;;10.43;;
44987;SDS011;35735;52.226;21.254;2022-11-06T12:06:03;15.10;;;10.13;;
44987;SDS011;35735;52.226;21.254;2022-11-06T12:11:22;18.77;;;10.60;;
44987;SDS011;35735;52.226;21.254;2022-11-06T12:16:26;12.40;;;9.82;;
44987;SDS011;35735;52.226;21.254;2022-11-06T12:21:31;13.93;;;10.02;;
44987;SDS011;35735;52.226;21.254;2022-11-06T12:26:50;16.20;;;9.93;;
44987;SDS011;35735;52.226;21.254;2022-11-06T12:32:07;13.82;;;8.70;;
44987;SDS011;35735;52.226;21.254;2022-11-06T12:37:32;12.15;;;9.23;;
44987;SDS011;35735;52.226;21.254;2022-11-06T12:42:48;13.45;;;9.18;;
44987;SDS011;35735;52.226;21.254;2022-11-06T12:59:42;15.70;;;9.82;;
44987;SDS011;35735;52.226;21.254;2022-11-06T13:11:04;15.10;;;8.98;;
44987;SDS011;35735;52.226;21.254;2022-11-06T13:21:54;13.10;;;7.93;;
44987;SDS011;35735;52.226;21.254;2022-11-06T13:27:33;15.23;;;9.18;;
44987;SDS011;35735;52.226;21.254;2022-11-06T13:32:40;15.30;;;9.02;;
44987;SDS011;35735;52.226;21.254;2022-11-06T13:37:45;12.85;;;8.68;;
44987;SDS011;35735;52.226;21.254;2022-11-06T13:42:56;14.23;;;8.70;;
44987;SDS011;35735;52.226;21.254;2022-11-06T13:48:08;13.23;;;8.35;;
44987;SDS011;35735;52.226;21.254;2022-11-06T13:53:40;12.40;;;9.18;;
44987;SDS011;35735;52.226;21.254;2022-11-06T14:10:24;17.52;;;9.05;;
44987;SDS011;35735;52.226;21.254;2022-11-06T14:15:35;17.33;;;8.93;;
44987;SDS011;35735;52.226;21.254;2022-11-06T14:20:38;12.23;;;8.13;;
44987;SDS011;35735;52.226;21.254;2022-11-06T14:30:40;16.37;;;9.90;;
44987;SDS011;35735;52.226;21.254;2022-11-06T14:40:45;12.10;;;9.38;;
44987;SDS011;35735;52.226;21.254;2022-11-06T14:46:05;13.82;;;8.77;;
44987;SDS011;35735;52.226;21.254;2022-11-06T14:51:16;14.73;;;8.98;;
44987;SDS011;35735;52.226;21.254;2022-11-06T14:56:28;11.45;;;8.65;;
44987;SDS011;35735;52.226;21.254;2022-11-06T15:01:32;11.40;;;9.02;;
44987;SDS011;35735;52.226;21.254;2022-11-06T15:06:36;16.98;;;11.02;;
44987;SDS011;35735;52.226;21.254;2022-11-06T15:16:42;22.17;;;14.30;;
44987;SDS011;35735;52.226;21.254;2022-11-06T15:22:14;19.50;;;13.68;;
44987;SDS011;35735;52.226;21.254;2022-11-06T15:27:24;16.42;;;11.77;;
44987;SDS011;35735;52.226;21.254;2022-11-06T15:32:32;24.60;;;15.20;;
44987;SDS011;35735;52.226;21.254;2022-11-06T15:37:44;25.10;;;15.38;;
44987;SDS011;35735;52.226;21.254;2022-11-06T15:42:50;20.25;;;12.68;;
44987;SDS011;35735;52.226;21.254;2022-11-06T15:47:51;19.20;;;13.50;;
44987;SDS011;35735;52.226;21.254;2022-11-06T16:03:20;34.10;;;22.50;;
44987;SDS011;35735;52.226;21.254;2022-11-06T16:08:24;29.30;;;19.42;;
44987;SDS011;35735;52.226;21.254;2022-11-06T16:13:27;34.03;;;19.80;;
44987;SDS011;35735;52.226;21.254;2022-11-06T16:23:39;35.20;;;23.05;;
44987;SDS011;35735;52.226;21.254;2022-11-06T16:28:48;33.13;;;21.08;;
44987;SDS011;35735;52.226;21.254;2022-11-06T16:33:53;31.05;;;21.27;;
44987;SDS011;35735;52.226;21.254;2022-11-06T16:39:44;34.50;;;22.35;;
44987;SDS011;35735;52.226;21.254;2022-11-06T16:49:31;34.50;;;22.35;;
44987;SDS011;35735;52.226;21.254;2022-11-06T16:54:32;41.35;;;26.83;;
44987;SDS011;35735;52.226;21.254;2022-11-06T16:59:33;43.50;;;27.13;;
44987;SDS011;35735;52.226;21.254;2022-11-06T17:04:33;38.70;;;27.05;;
44987;SDS011;35735;52.226;21.254;2022-11-06T17:09:34;48.08;;;31.70;;
44987;SDS011;35735;52.226;21.254;2022-11-06T17:14:35;54.55;;;34.40;;
44987;SDS011;35735;52.226;21.254;2022-11-06T17:19:35;52.22;;;35.72;;
44987;SDS011;35735;52.226;21.254;2022-11-06T17:24:36;65.20;;;43.25;;
44987;SDS011;35735;52.226;21.254;2022-11-06T17:29:36;55.65;;;37.63;;
44987;SDS011;35735;52.226;21.254;2022-11-06T17:34:37;56.47;;;37.08;;
44987;SDS011;35735;52.226;21.254;2022-11-06T17:39:37;64.18;;;39.55;;
44987;SDS011;35735;52.226;21.254;2022-11-06T17:44:38;57.85;;;35.75;;
44987;SDS011;35735;52.226;21.254;2022-11-06T17:49:38;58.70;;;35.85;;
44987;SDS011;35735;52.226;21.254;2022-11-06T17:54:39;61.15;;;38.55;;
44987;SDS011;35735;52.226;21.254;2022-11-06T17:59:39;55.90;;;37.80;;
44987;SDS011;35735;52.226;21.254;2022-11-06T18:04:40;57.28;;;38.50;;
44987;SDS011;35735;52.226;21.254;2022-11-06T18:09:41;58.83;;;38.08;;
44987;SDS011;35735;52.226;21.254;2022-11-06T18:14:41;50.15;;;34.55;;
44987;SDS011;35735;52.226;21.254;2022-11-06T18:19:42;48.05;;;33.17;;
44987;SDS011;35735;52.226;21.254;2022-11-06T18:24:42;53.70;;;34.50;;
44987;SDS011;35735;52.226;21.254;2022-11-06T18:29:43;48.70;;;33.80;;
44987;SDS011;35735;52.226;21.254;2022-11-06T18:34:44;53.05;;;33.38;;
44987;SDS011;35735;52.226;21.254;2022-11-06T18:39:44;50.03;;;32.67;;
44987;SDS011;35735;52.226;21.254;2022-11-06T18:44:45;45.60;;;30.67;;
44987;SDS011;35735;52.226;21.254;2022-11-06T18:49:45;49.28;;;31.77;;
44987;SDS011;35735;52.226;21.254;2022-11-06T18:54:46;51.50;;;32.97;;
44987;SDS011;35735;52.226;21.254;2022-11-06T18:59:46;54.58;;;36.20;;
44987;SDS011;35735;52.226;21.254;2022-11-06T19:04:47;69.22;;;43.75;;
44987;SDS011;35735;52.226;21.254;2022-11-06T19:09:47;56.72;;;36.10;;
44987;SDS011;35735;52.226;21.254;2022-11-06T19:14:48;55.53;;;34.55;;
44987;SDS011;35735;52.226;21.254;2022-11-06T19:19:48;67.35;;;39.33;;
44987;SDS011;35735;52.226;21.254;2022-11-06T19:24:49;72.12;;;41.00;;
44987;SDS011;35735;52.226;21.254;2022-11-06T19:29:49;83.07;;;49.35;;
44987;SDS011;35735;52.226;21.254;2022-11-06T19:34:50;89.87;;;49.17;;
44987;SDS011;35735;52.226;21.254;2022-11-06T19:39:50;152.62;;;71.32;;
44987;SDS011;35735;52.226;21.254;2022-11-06T19:44:51;128.68;;;58.63;;
44987;SDS011;35735;52.226;21.254;2022-11-06T19:49:52;126.72;;;58.55;;
44987;SDS011;35735;52.226;21.254;2022-11-06T19:54:52;166.48;;;79.82;;
44987;SDS011;35735;52.226;21.254;2022-11-06T19:59:53;156.52;;;74.68;;
44987;SDS011;35735;52.226;21.254;2022-11-06T20:04:53;140.40;;;73.05;;
44987;SDS011;35735;52.226;21.254;2022-11-06T20:09:54;126.87;;;65.32;;
44987;SDS011;35735;52.226;21.254;2022-11-06T20:14:54;114.10;;;60.40;;
44987;SDS011;35735;52.226;21.254;2022-11-06T20:19:55;104.18;;;57.10;;
44987;SDS011;35735;52.226;21.254;2022-11-06T20:24:55;93.93;;;53.60;;
44987;SDS011;35735;52.226;21.254;2022-11-06T20:29:56;90.85;;;54.00;;
44987;SDS011;35735;52.226;21.254;2022-11-06T20:34:58;92.55;;;53.75;;
44987;SDS011;35735;52.226;21.254;2022-11-06T20:39:59;92.10;;;53.40;;
44987;SDS011;35735;52.226;21.254;2022-11-06T20:44:59;85.60;;;52.65;;
44987;SDS011;35735;52.226;21.254;2022-11-06T20:50:00;91.68;;;52.67;;
44987;SDS011;35735;52.226;21.254;2022-11-06T20:55:00;87.03;;;52.13;;
44987;SDS011;35735;52.226;21.254;2022-11-06T21:00:02;91.93;;;52.28;;
44987;SDS011;35735;52.226;21.254;2022-11-06T21:05:03;90.87;;;51.65;;
44987;SDS011;35735;52.226;21.254;2022-11-06T21:10:04;88.20;;;51.08;;
44987;SDS011;35735;52.226;21.254;2022-11-06T21:15:05;80.03;;;49.15;;
44987;SDS011;35735;52.226;21.254;2022-11-06T21:20:06;83.25;;;49.38;;
44987;SDS011;35735;52.226;21.254;2022-11-06T21:25:08;80.18;;;48.78;;
44987;SDS011;35735;52.226;21.254;2022-11-06T21:30:09;77.15;;;45.88;;
44987;SDS011;35735;52.226;21.254;2022-11-06T21:35:10;71.62;;;45.80;;
44987;SDS011;35735;52.226;21.254;2022-11-06T21:40:11;68.32;;;41.97;;
44987;SDS011;35735;52.226;21.254;2022-11-06T21:45:11;76.20;;;43.40;;
44987;SDS011;35735;52.226;21.254;2022-11-06T21:50:12;73.97;;;45.35;;
44987;SDS011;35735;52.226;21.254;2022-11-06T21:55:12;73.07;;;45.63;;
44987;SDS011;35735;52.226;21.254;2022-11-06T22:00:13;67.20;;;43.20;;
44987;SDS011;35735;52.226;21.254;2022-11-06T22:05:14;67.53;;;41.00;;
44987;SDS011;35735;52.226;21.254;2022-11-06T22:10:14;67.37;;;40.47;;
44987;SDS011;35735;52.226;21.254;2022-11-06T22:15:15;67.75;;;39.45;;
44987;SDS011;35735;52.226;21.254;2022-11-06T22:20:15;63.42;;;39.03;;
44987;SDS011;35735;52.226;21.254;2022-11-06T22:25:16;62.00;;;38.03;;
44987;SDS011;35735;52.226;21.254;2022-11-06T22:30:16;62.45;;;36.22;;
44987;SDS011;35735;52.226;21.254;2022-11-06T22:35:17;55.70;;;37.15;;
44987;SDS011;35735;52.226;21.254;2022-11-06T22:40:18;63.47;;;40.65;;
44987;SDS011;35735;52.226;21.254;2022-11-06T22:45:18;67.80;;;39.80;;
44987;SDS011;35735;52.226;21.254;2022-11-06T22:50:19;75.68;;;41.42;;
44987;SDS011;35735;52.226;21.254;2022-11-06T22:55:19;67.47;;;40.05;;
44987;SDS011;35735;52.226;21.254;2022-11-06T23:00:20;70.70;;;39.53;;
44987;SDS011;35735;52.226;21.254;2022-11-06T23:05:21;60.33;;;37.03;;
44987;SDS011;35735;52.226;21.254;2022-11-06T23:10:22;60.35;;;36.95;;
44987;SDS011;35735;52.226;21.254;2022-11-06T23:15:23;56.15;;;35.05;;
44987;SDS011;35735;52.226;21.254;2022-11-06T23:20:24;62.28;;;37.90;;
44987;SDS011;35735;52.226;21.254;2022-11-06T23:25:25;64.18;;;37.67;;
44987;SDS011;35735;52.226;21.254;2022-11-06T23:30:27;58.38;;;35.05;;
44987;SDS011;35735;52.226;21.254;2022-11-06T23:35:28;57.15;;;34.40;;
44987;SDS011;35735;52.226;21.254;2022-11-06T23:40:29;52.40;;;33.72;;
44987;SDS011;35735;52.226;21.254;2022-11-06T23:45:29;56.88;;;33.97;;
44987;SDS011;35735;52.226;21.254;2022-11-06T23:50:30;57.90;;;34.63;;
44987;SDS011;35735;52.226;21.254;2022-11-06T23:55:31;55.28;;;33.08;;
